Shalersville, Ohio
Current Conditions -  °F | °C
As of 4:37 PM on Thursday 23 Oct 2014 (Local Time) from KPOV Reporting Station
Scattered Clouds Scattered Clouds  
Wind Chill: 55°   Ceiling: Unl
Heat Index: 55°   Visibility: 10mi
Dew Point: 41°   Wind: 8mph
Humidity: 60%   Direction: 310°NW
Pressure: 30.12"   Gusts: NA
Location:  41.2966°N, 81.2269°W
Report Text: KPOV 232037Z AUTO 31007KT 270V330 10SM SCT025 13/05 A3012 RMK AO2 T01280051
Loading
Personal Weather Stations






























Interactive Weather Map
Tropical Storm Tracking
New forecast layout! Learn more

10-Day Weather Forecast

Advertisements
Track Severe Weather on mobile